Time;durP1;ratioP1;P1;durP2;ratioP2;P2;SDS_P1;SDS_P2;PMS_P1;PMS_P2;Temp;Humidity;BMP_temperature;BMP_pressure;BME280_temperature;BME280_humidity;BME280_pressure;Samples;Min_cycle;Max_cycle;Signal;HPM_P1;HPM_P2
2022/04/24 00:01:00;;;;;;;6.65;4.10;;;;;;;10.99;54.85;100139.25;5075266;28;20500;-70
2022/04/24 00:03:26;;;;;;;7.00;5.03;;;;;;;10.82;55.22;100141.25;5089303;28;20044;-70
2022/04/24 00:05:53;;;;;;;10.60;4.82;;;;;;;10.65;55.86;100143.13;5087898;28;20051;-72
2022/04/24 00:08:19;;;;;;;9.95;4.07;;;;;;;10.80;55.55;100127.38;5088257;28;20612;-71
2022/04/24 00:10:45;;;;;;;6.97;4.03;;;;;;;10.84;55.33;100123.63;5081371;28;20045;-71
2022/04/24 00:13:12;;;;;;;10.25;4.35;;;;;;;10.55;56.12;100131.50;5083144;28;20101;-71
2022/04/24 00:15:39;;;;;;;9.52;4.63;;;;;;;10.60;55.99;100124.22;5073734;28;20058;-72
2022/04/24 00:18:07;;;;;;;8.10;4.40;;;;;;;10.47;56.21;100125.88;5081786;28;20458;-71
2022/04/24 00:20:34;;;;;;;7.60;4.40;;;;;;;10.40;56.54;100129.81;5087742;28;20423;-71
2022/04/24 00:23:00;;;;;;;7.85;4.22;;;;;;;10.36;56.82;100120.47;5084618;28;20110;-71
2022/04/24 00:25:27;;;;;;;9.18;4.47;;;;;;;10.16;57.65;100120.81;5083161;28;20470;-71
2022/04/24 00:27:53;;;;;;;6.38;4.07;;;;;;;10.00;57.98;100120.00;5068577;28;20633;-71
2022/04/24 00:30:20;;;;;;;12.25;4.13;;;;;;;9.79;59.03;100115.09;5067568;28;20071;-71
2022/04/24 00:32:46;;;;;;;6.30;4.10;;;;;;;9.88;58.70;100115.47;5077552;28;20059;-71
2022/04/24 00:35:14;;;;;;;6.82;4.18;;;;;;;9.90;58.66;100114.47;5088926;28;20040;-71
2022/04/24 00:37:40;;;;;;;10.48;4.63;;;;;;;9.81;59.05;100103.69;5089012;28;20071;-71
2022/04/24 00:40:08;;;;;;;6.18;4.30;;;;;;;9.41;60.08;100102.53;5087385;28;20081;-70
2022/04/24 00:42:34;;;;;;;9.07;4.50;;;;;;;9.53;59.93;100107.06;5086831;28;20121;-71
2022/04/24 00:45:00;;;;;;;9.85;4.63;;;;;;;9.38;60.56;100095.72;5089123;28;20040;-71
2022/04/24 00:47:27;;;;;;;9.88;4.75;;;;;;;9.32;60.99;100093.41;5088393;28;20438;-71
2022/04/24 00:49:53;;;;;;;8.23;4.43;;;;;;;9.20;61.21;100094.13;5087722;28;20564;-71
2022/04/24 00:52:21;;;;;;;8.93;4.25;;;;;;;9.18;61.54;100090.75;5088891;28;20066;-71
2022/04/24 00:54:48;;;;;;;8.10;4.13;;;;;;;9.06;61.87;100089.66;5085065;28;20066;-71
2022/04/24 00:57:14;;;;;;;11.35;5.35;;;;;;;8.87;62.75;100082.94;5080452;28;20085;-71
2022/04/24 00:59:41;;;;;;;11.50;4.63;;;;;;;8.83;62.68;100084.03;5067478;28;20422;-71
2022/04/24 01:02:09;;;;;;;6.47;4.30;;;;;;;8.82;62.39;100085.78;5084794;28;20048;-71
2022/04/24 01:04:36;;;;;;;6.78;4.13;;;;;;;8.90;62.55;100087.97;5084070;28;20048;-71
2022/04/24 01:07:03;;;;;;;13.55;4.43;;;;;;;8.86;62.43;100082.09;5087945;28;20048;-71
2022/04/24 01:09:33;;;;;;;10.05;4.60;;;;;;;8.85;62.72;100083.00;5086530;28;20056;-71
2022/04/24 01:11:59;;;;;;;10.68;4.70;;;;;;;8.85;62.62;100080.38;5086388;28;20827;-71
2022/04/24 01:14:27;;;;;;;6.20;4.35;;;;;;;8.83;62.76;100081.41;5088172;28;20048;-71
2022/04/24 01:16:54;;;;;;;9.73;5.00;;;;;;;8.95;62.21;100080.72;5083756;28;20036;-71
2022/04/24 01:19:21;;;;;;;7.35;4.55;;;;;;;8.87;62.31;100080.31;5083790;28;20040;-71
2022/04/24 01:21:50;;;;;;;7.57;4.18;;;;;;;8.68;63.10;100068.22;5088259;28;20093;-71
2022/04/24 01:24:18;;;;;;;6.57;4.20;;;;;;;8.79;62.74;100078.94;5087882;28;20089;-72
2022/04/24 01:26:45;;;;;;;7.22;4.68;;;;;;;8.69;62.95;100075.16;5079169;28;20055;-72
2022/04/24 01:29:12;;;;;;;6.93;4.28;;;;;;;8.69;63.03;100075.16;5087371;28;20089;-71
2022/04/24 01:31:39;;;;;;;7.95;4.38;;;;;;;8.84;62.48;100072.63;5088000;28;20050;-70
2022/04/24 01:34:06;;;;;;;10.02;4.90;;;;;;;8.64;63.27;100071.13;5088199;28;20614;-71
2022/04/24 01:36:32;;;;;;;9.20;4.18;;;;;;;8.56;63.54;100084.59;5083380;28;20040;-70
2022/04/24 01:39:00;;;;;;;7.38;4.78;;;;;;;8.64;63.36;100066.72;5078656;28;20422;-70
2022/04/24 01:41:26;;;;;;;8.32;4.50;;;;;;;8.69;63.05;100069.06;5078733;28;20245;-70
2022/04/24 01:43:53;;;;;;;9.15;4.88;;;;;;;8.78;62.99;100068.59;5081833;28;20097;-70
2022/04/24 01:46:19;;;;;;;9.15;4.28;;;;;;;8.68;63.19;100072.63;5087817;28;20089;-70
2022/04/24 01:48:46;;;;;;;7.78;4.40;;;;;;;8.64;63.32;100064.13;5087070;28;20052;-70
2022/04/24 01:51:14;;;;;;;10.32;4.05;;;;;;;8.71;62.92;100064.63;5087387;28;20082;-70
2022/04/24 01:53:41;;;;;;;7.10;4.30;;;;;;;8.74;62.87;100061.84;5087852;28;20048;-70
2022/04/24 01:56:09;;;;;;;9.68;4.28;;;;;;;8.60;63.24;100062.59;5081686;28;20557;-70
2022/04/24 01:58:37;;;;;;;8.55;4.32;;;;;;;8.47;63.79;100064.16;5074551;28;20047;-70
2022/04/24 02:01:04;;;;;;;8.82;4.55;;;;;;;8.17;64.83;100065.75;5087767;28;20044;-70
2022/04/24 02:03:31;;;;;;;7.45;4.63;;;;;;;8.07;65.40;100056.72;5088781;28;20040;-70
2022/04/24 02:05:58;;;;;;;8.00;4.57;;;;;;;8.14;65.32;100064.16;5088832;28;20101;-70
2022/04/24 02:08:24;;;;;;;8.02;4.38;;;;;;;8.30;64.74;100074.69;5088717;28;20424;-70
2022/04/24 02:10:51;;;;;;;9.82;4.70;;;;;;;8.04;65.62;100067.31;5082403;28;20041;-70
2022/04/24 02:13:19;;;;;;;7.65;4.78;;;;;;;8.11;65.42;100061.72;5068860;28;20094;-70
2022/04/24 02:15:46;;;;;;;9.95;5.28;;;;;;;8.04;65.59;100065.56;5077460;28;20411;-70
2022/04/24 02:18:12;;;;;;;12.15;4.72;;;;;;;7.88;65.89;100069.88;5081738;28;20635;-70
2022/04/24 02:20:39;;;;;;;9.75;5.40;;;;;;;7.80;66.53;100067.66;5076582;28;20101;-70
2022/04/24 02:23:05;;;;;;;10.60;4.90;;;;;;;7.86;66.23;100061.28;5087390;28;20043;-70
2022/04/24 02:25:32;;;;;;;8.43;4.70;;;;;;;7.87;66.35;100068.19;5078787;28;20044;-70
2022/04/24 02:27:59;;;;;;;10.85;4.63;;;;;;;7.76;66.79;100057.47;5087103;28;20579;-70
2022/04/24 02:30:28;;;;;;;8.90;5.05;;;;;;;7.65;67.33;100060.59;5086712;28;20055;-70
2022/04/24 02:32:56;;;;;;;12.73;4.93;;;;;;;7.52;67.88;100056.09;5087063;28;20036;-70
2022/04/24 02:35:22;;;;;;;8.90;5.32;;;;;;;7.54;67.73;100055.06;5086543;28;20052;-70
2022/04/24 02:37:48;;;;;;;10.30;5.32;;;;;;;7.53;67.82;100048.19;5087475;28;20078;-70
2022/04/24 02:40:19;;;;;;;11.85;5.07;;;;;;;7.51;68.13;100050.03;5086669;28;20101;-70
2022/04/24 02:42:46;;;;;;;9.50;4.78;;;;;;;7.52;67.79;100043.88;5085548;28;20048;-70
2022/04/24 02:45:12;;;;;;;9.35;5.03;;;;;;;7.41;68.45;100047.94;5087577;28;20481;-70
2022/04/24 02:47:40;;;;;;;8.93;4.88;;;;;;;7.63;67.60;100049.41;5082006;28;20071;-70
2022/04/24 02:50:07;;;;;;;10.02;5.35;;;;;;;7.69;67.38;100050.84;5065133;28;20137;-71
2022/04/24 02:52:33;;;;;;;11.98;5.30;;;;;;;7.67;67.57;100050.09;5085607;28;20051;-71
2022/04/24 02:55:00;;;;;;;13.38;5.10;;;;;;;7.61;67.81;100039.97;5084629;28;20044;-71
2022/04/24 02:57:26;;;;;;;8.75;4.90;;;;;;;7.47;68.28;100038.03;5079725;28;20063;-71
2022/04/24 02:59:53;;;;;;;10.02;4.82;;;;;;;7.67;67.73;100034.44;5087622;28;20105;-71
2022/04/24 03:02:19;;;;;;;9.18;5.07;;;;;;;7.82;67.16;100028.44;5089729;28;20556;-71
2022/04/24 03:04:47;;;;;;;12.18;5.63;;;;;;;7.70;67.46;100035.13;5090116;28;20044;-71
2022/04/24 03:07:13;;;;;;;10.07;5.55;;;;;;;7.37;68.76;100036.81;5090543;28;20510;-71
2022/04/24 03:09:41;;;;;;;9.07;4.80;;;;;;;7.37;68.76;100034.22;5089909;28;20044;-71
2022/04/24 03:12:08;;;;;;;10.07;5.30;;;;;;;7.21;69.41;100030.66;5087525;28;20071;-71
2022/04/24 03:14:35;;;;;;;9.20;4.80;;;;;;;7.46;68.57;100033.78;5089920;28;20071;-71
2022/04/24 03:17:01;;;;;;;10.15;4.95;;;;;;;7.27;69.35;100028.63;5090352;28;20044;-71
2022/04/24 03:19:27;;;;;;;8.90;5.00;;;;;;;7.32;68.93;100033.59;5089283;28;20044;-71
2022/04/24 03:21:55;;;;;;;11.40;5.50;;;;;;;7.32;69.09;100038.81;5089977;28;20447;-71
2022/04/24 03:24:21;;;;;;;9.15;4.60;;;;;;;7.23;69.24;100036.66;5081707;28;20064;-71
2022/04/24 03:26:48;;;;;;;14.85;5.15;;;;;;;7.17;69.53;100029.97;5081547;28;20081;-71
2022/04/24 03:29:14;;;;;;;8.85;4.95;;;;;;;7.03;69.75;100031.56;5088767;28;20043;-71
2022/04/24 03:31:40;;;;;;;10.85;5.22;;;;;;;7.07;70.04;100040.94;5089836;28;20565;-71
2022/04/24 03:34:07;;;;;;;9.82;5.45;;;;;;;7.12;69.53;100031.97;5089783;28;20043;-71
2022/04/24 03:36:33;;;;;;;9.07;5.20;;;;;;;7.05;69.98;100035.81;5090391;28;20070;-71
2022/04/24 03:39:01;;;;;;;10.25;5.05;;;;;;;6.94;70.51;100032.03;5089241;28;20048;-71
2022/04/24 03:41:27;;;;;;;9.65;4.72;;;;;;;6.95;70.56;100036.31;5089085;28;20611;-71
2022/04/24 03:43:53;;;;;;;9.80;4.88;;;;;;;6.81;71.02;100032.59;5088965;28;20043;-71
2022/04/24 03:46:20;;;;;;;9.13;5.68;;;;;;;6.89;70.73;100032.22;5089887;28;20051;-71
2022/04/24 03:48:46;;;;;;;10.95;5.07;;;;;;;6.68;71.51;100034.09;5089274;28;20052;-71
2022/04/24 03:51:12;;;;;;;11.68;5.63;;;;;;;6.61;71.80;100021.44;5089570;28;20556;-71
2022/04/24 03:53:39;;;;;;;10.43;5.00;;;;;;;6.60;72.03;100022.34;5087252;28;20048;-71
2022/04/24 03:56:07;;;;;;;10.27;5.50;;;;;;;6.67;71.93;100024.59;5076745;28;20045;-71
2022/04/24 03:58:33;;;;;;;9.82;4.75;;;;;;;7.00;70.71;100032.56;5082137;28;20048;-71
2022/04/24 04:01:00;;;;;;;10.23;5.38;;;;;;;6.91;70.97;100032.19;5088242;28;20051;-71
2022/04/24 04:03:26;;;;;;;14.23;5.93;;;;;;;6.87;70.61;100031.47;5089576;28;20040;-71
2022/04/24 04:05:53;;;;;;;13.82;5.28;;;;;;;6.99;70.66;100024.81;5079908;28;20093;-71
2022/04/24 04:08:19;;;;;;;11.38;5.53;;;;;;;6.85;71.08;100028.94;5088942;28;20052;-71
2022/04/24 04:10:45;;;;;;;14.85;5.50;;;;;;;6.87;71.20;100025.41;5079220;28;20057;-71
2022/04/24 04:13:13;;;;;;;11.52;5.50;;;;;;;6.68;71.81;100034.09;5068618;28;20137;-71
2022/04/24 04:15:39;;;;;;;13.25;5.22;;;;;;;6.70;72.15;100023.59;5069142;28;20561;-71
2022/04/24 04:18:06;;;;;;;11.75;5.60;;;;;;;6.83;71.89;100025.56;5087323;28;20056;-71
2022/04/24 04:20:32;;;;;;;12.27;5.55;;;;;;;6.89;71.51;100021.81;5084275;28;20055;-71
2022/04/24 04:22:58;;;;;;;10.25;5.63;;;;;;;6.60;72.49;100023.19;5080523;28;20131;-71
2022/04/24 04:25:25;;;;;;;14.68;5.50;;;;;;;6.81;72.30;100031.75;5079770;28;20044;-71
2022/04/24 04:27:53;;;;;;;9.93;5.13;;;;;;;6.62;72.83;100034.38;5088001;28;20052;-71
2022/04/24 04:30:21;;;;;;;9.13;5.03;;;;;;;6.79;72.42;100031.84;5084877;28;20162;-71
2022/04/24 04:32:48;;;;;;;9.88;4.97;;;;;;;6.98;71.71;100026.59;5088461;28;20044;-71
2022/04/24 04:35:14;;;;;;;10.05;4.88;;;;;;;7.11;71.15;100034.66;5088814;28;20531;-71
2022/04/24 04:37:41;;;;;;;10.70;4.78;;;;;;;7.16;71.13;100027.47;5084835;28;20097;-71
2022/04/24 04:40:08;;;;;;;11.38;4.97;;;;;;;7.10;71.25;100031.19;5085683;28;20584;-70
2022/04/24 04:42:35;;;;;;;13.00;5.05;;;;;;;7.11;71.30;100022.47;5087888;28;20097;-70
2022/04/24 04:45:03;;;;;;;8.77;5.28;;;;;;;7.26;70.70;100029.53;5087619;28;20437;-70
2022/04/24 04:47:31;;;;;;;9.40;4.88;;;;;;;7.36;70.57;100029.91;5087772;28;20048;-70
2022/04/24 04:49:57;;;;;;;9.70;5.10;;;;;;;7.43;70.23;100020.03;5087681;28;20047;-71
2022/04/24 04:52:24;;;;;;;8.30;5.03;;;;;;;7.42;70.38;100034.00;5087999;28;20044;-71
2022/04/24 04:54:50;;;;;;;11.30;4.90;;;;;;;7.72;69.61;100028.06;5076228;28;20101;-71
2022/04/24 04:57:17;;;;;;;12.60;5.85;;;;;;;7.84;69.39;100026.59;5068285;28;20446;-71
2022/04/24 04:59:43;;;;;;;9.80;4.57;;;;;;;8.04;68.42;100028.16;5086337;28;20044;-71
2022/04/24 05:02:10;;;;;;;11.65;5.20;;;;;;;8.05;68.25;100019.41;5085825;28;20468;-71
2022/04/24 05:04:38;;;;;;;12.05;4.55;;;;;;;8.09;68.26;100026.97;5087546;28;20052;-71
2022/04/24 05:07:05;;;;;;;8.70;5.07;;;;;;;8.28;67.93;100032.06;5088040;28;20048;-71
2022/04/24 05:09:31;;;;;;;13.43;4.75;;;;;;;8.55;66.92;100038.47;5087673;28;20048;-71
2022/04/24 05:11:58;;;;;;;7.88;4.20;;;;;;;8.60;66.59;100030.38;5086411;28;20048;-71
2022/04/24 05:14:24;;;;;;;10.77;4.65;;;;;;;8.90;65.85;100033.94;5086852;28;20044;-71
2022/04/24 05:16:51;;;;;;;11.10;4.95;;;;;;;8.80;66.17;100033.56;5077431;28;20044;-71
2022/04/24 05:19:17;;;;;;;11.27;4.72;;;;;;;9.22;64.85;100030.31;5085943;28;20066;-70
2022/04/24 05:21:45;;;;;;;9.85;4.80;;;;;;;9.27;64.31;100032.69;5074800;28;20595;-71
2022/04/24 05:24:11;;;;;;;9.55;4.70;;;;;;;9.61;63.28;100028.94;5081634;28;20055;-70
2022/04/24 05:26:38;;;;;;;7.53;4.68;;;;;;;9.53;63.36;100026.78;5072793;28;20098;-71
2022/04/24 05:29:05;;;;;;;10.95;5.07;;;;;;;9.76;63.23;100044.56;5067760;28;20318;-71
2022/04/24 05:31:31;;;;;;;10.65;4.95;;;;;;;10.09;62.02;100027.75;5068220;28;20071;-70
2022/04/24 05:33:58;;;;;;;9.00;4.65;;;;;;;10.09;62.20;100033.84;5075068;28;20081;-71
2022/04/24 05:36:24;;;;;;;8.90;4.63;;;;;;;10.10;62.09;100021.59;5086705;28;20044;-71
2022/04/24 05:38:52;;;;;;;8.82;4.80;;;;;;;10.44;60.49;100020.41;5087206;28;20044;-72
2022/04/24 05:41:18;;;;;;;10.10;4.93;;;;;;;10.88;59.74;100036.78;5087866;28;20450;-70
2022/04/24 05:43:44;;;;;;;7.05;4.15;;;;;;;11.18;58.61;100033.97;5087896;28;20052;-70
2022/04/24 05:46:11;;;;;;;7.55;4.93;;;;;;;11.49;57.67;100040.69;5080882;28;20049;-71
2022/04/24 05:48:37;;;;;;;8.27;4.70;;;;;;;11.02;58.91;100028.03;5077394;28;20048;-70
2022/04/24 05:51:03;;;;;;;11.75;5.47;;;;;;;11.15;58.72;100029.78;5086606;28;20055;-71
2022/04/24 05:53:30;;;;;;;7.85;4.53;;;;;;;11.52;57.80;100022.94;5078292;28;20037;-71
2022/04/24 05:55:58;;;;;;;14.93;5.03;;;;;;;11.87;56.90;100025.81;5076451;28;20094;-71
2022/04/24 05:58:24;;;;;;;9.65;5.22;;;;;;;11.84;56.22;100017.31;5087683;28;20093;-71
2022/04/24 06:00:50;;;;;;;13.82;4.80;;;;;;;11.92;56.23;100029.00;5086089;28;20101;-71
2022/04/24 06:03:17;;;;;;;9.45;5.07;;;;;;;12.33;55.01;100015.59;5067215;28;20052;-71
2022/04/24 06:05:45;;;;;;;11.18;5.22;;;;;;;12.39;54.59;100016.94;5067371;28;20052;-71
2022/04/24 06:08:11;;;;;;;9.07;4.68;;;;;;;12.52;53.93;100016.00;5067591;28;20044;-70
2022/04/24 06:10:38;;;;;;;9.48;5.18;;;;;;;12.84;53.51;100012.84;5078930;28;20097;-71
2022/04/24 06:13:06;;;;;;;9.40;4.50;;;;;;;13.10;52.57;100011.81;5079723;28;20392;-70
2022/04/24 06:15:32;;;;;;;9.93;5.07;;;;;;;13.45;51.28;100017.91;5078405;28;20044;-70
2022/04/24 06:18:00;;;;;;;9.40;4.95;;;;;;;13.83;51.13;100016.81;5070342;28;20262;-70
2022/04/24 06:20:29;;;;;;;9.55;5.50;;;;;;;13.79;51.11;100026.75;5083310;28;20048;-71
2022/04/24 06:22:56;;;;;;;9.68;5.20;;;;;;;14.12;49.80;100018.03;5077173;28;20032;-71
2022/04/24 06:25:24;;;;;;;7.22;4.90;;;;;;;14.15;50.26;100017.84;5082881;28;20657;-71
2022/04/24 06:27:52;;;;;;;7.15;4.95;;;;;;;14.12;50.45;100007.50;5086850;28;20048;-70
2022/04/24 06:30:22;;;;;;;9.70;5.35;;;;;;;13.94;49.92;100015.03;5088519;28;20113;-71
2022/04/24 06:32:49;;;;;;;9.23;4.80;;;;;;;14.12;49.87;100007.50;5090028;28;20097;-71
2022/04/24 06:35:17;;;;;;;8.57;4.82;;;;;;;14.37;49.08;100002.03;5110886;28;20048;-71
2022/04/24 06:37:45;;;;;;;11.02;5.70;;;;;;;14.25;50.22;100010.88;5086279;27;20577;-71
2022/04/24 06:40:13;;;;;;;9.23;5.38;;;;;;;14.63;48.58;100004.41;5089831;28;20039;-71
2022/04/24 06:42:48;;;;;;;11.07;5.55;;;;;;;14.46;48.58;100005.72;5091087;28;20499;-71
2022/04/24 06:45:15;;;;;;;10.68;5.40;;;;;;;14.85;48.61;100012.28;5107849;27;20044;-70
2022/04/24 06:47:42;;;;;;;10.45;5.30;;;;;;;14.72;48.80;100003.66;5108420;28;20557;-71
2022/04/24 06:50:10;;;;;;;11.52;5.97;;;;;;;14.78;49.82;100008.47;5089241;28;20044;-70
2022/04/24 06:52:36;;;;;;;10.32;5.95;;;;;;;15.29;49.06;100000.72;5078750;28;20052;-70
2022/04/24 06:55:03;;;;;;;12.35;5.60;;;;;;;15.27;48.93;100005.28;5088705;28;20415;-71
2022/04/24 06:57:29;;;;;;;8.77;5.72;;;;;;;15.41;47.81;100002.34;5090554;28;20097;-70
2022/04/24 06:59:55;;;;;;;8.77;5.22;;;;;;;15.42;47.52;100001.38;5091704;28;20040;-70
2022/04/24 07:02:22;;;;;;;11.15;5.85;;;;;;;15.31;46.92;99998.78;5090903;28;20036;-70
2022/04/24 07:04:50;;;;;;;9.20;5.47;;;;;;;14.79;48.39;99997.75;5092096;28;20062;-70
2022/04/24 07:07:16;;;;;;;9.73;5.72;;;;;;;14.55;49.49;99997.94;5110974;27;20044;-70
2022/04/24 07:09:42;;;;;;;10.05;5.53;;;;;;;15.28;48.64;99996.38;5089233;28;20044;-70
2022/04/24 07:12:10;;;;;;;14.00;6.32;;;;;;;15.48;48.52;99991.13;5087668;28;20079;-70
2022/04/24 07:14:36;;;;;;;11.77;5.90;;;;;;;15.90;48.95;99984.03;5097660;28;20552;-70
2022/04/24 07:17:03;;;;;;;6.88;5.35;;;;;;;15.87;46.99;99992.25;5109501;27;20043;-70
2022/04/24 07:19:29;;;;;;;13.18;5.63;;;;;;;16.74;46.49;99982.84;5091835;28;20109;-71
2022/04/24 07:21:58;;;;;;;9.70;6.05;;;;;;;16.94;46.77;99979.25;5079321;28;20484;-70
2022/04/24 07:24:25;;;;;;;9.45;6.15;;;;;;;17.43;45.81;99975.63;5097943;27;20495;-70
2022/04/24 07:26:51;;;;;;;8.15;5.57;;;;;;;18.06;42.42;99981.25;5107500;28;20112;-71
2022/04/24 07:29:18;;;;;;;8.63;6.18;;;;;;;17.83;42.44;99961.34;5107058;27;20067;-71
2022/04/24 07:31:44;;;;;;;10.98;6.30;;;;;;;18.25;42.30;99965.25;5089188;28;20036;-70
2022/04/24 07:34:11;;;;;;;9.18;6.32;;;;;;;18.73;43.91;99962.34;5112887;27;20060;-71
2022/04/24 07:36:37;;;;;;;13.13;7.10;;;;;;;18.83;41.95;99957.78;5090906;28;20063;-71
2022/04/24 07:39:05;;;;;;;8.48;6.20;;;;;;;18.67;40.83;99956.78;5091533;28;20044;-71
2022/04/24 07:41:31;;;;;;;8.68;6.18;;;;;;;18.25;42.53;99959.09;5098391;28;20104;-71
2022/04/24 07:43:57;;;;;;;8.95;6.03;;;;;;;18.19;41.39;99951.69;5109684;27;20392;-71
2022/04/24 07:46:24;;;;;;;10.18;6.15;;;;;;;18.38;41.68;99955.09;5105375;28;20356;-71
2022/04/24 07:48:50;;;;;;;12.63;6.30;;;;;;;18.91;42.13;99944.59;5090299;28;20102;-71
2022/04/24 07:51:17;;;;;;;9.30;6.20;;;;;;;19.26;39.55;99943.72;5084639;28;20078;-71
2022/04/24 07:53:44;;;;;;;9.98;6.05;;;;;;;19.55;41.31;99940.81;5093435;28;20109;-71
2022/04/24 07:56:11;;;;;;;10.20;6.20;;;;;;;19.79;40.39;99938.34;5106764;27;20058;-71
2022/04/24 07:58:38;;;;;;;10.80;6.25;;;;;;;19.81;41.42;99936.34;5109987;27;20051;-71
2022/04/24 08:01:04;;;;;;;8.65;5.97;;;;;;;19.82;37.93;99934.50;5107042;27;20039;-71
2022/04/24 08:03:30;;;;;;;11.38;6.22;;;;;;;20.05;37.81;99930.31;5109331;27;20040;-71
2022/04/24 08:05:57;;;;;;;12.90;5.90;;;;;;;20.11;38.39;99932.34;5107306;28;20487;-71
2022/04/24 08:08:25;;;;;;;10.13;6.32;;;;;;;20.22;37.65;99937.38;5099111;27;20048;-71
2022/04/24 08:10:53;;;;;;;9.90;6.35;;;;;;;20.78;40.35;99933.25;5088091;28;20052;-71
2022/04/24 08:13:21;;;;;;;10.30;6.35;;;;;;;20.85;39.23;99934.25;5084286;28;20045;-71
2022/04/24 08:15:50;;;;;;;9.82;6.47;;;;;;;21.09;39.67;99939.63;5085954;28;20051;-70
2022/04/24 08:18:17;;;;;;;8.10;6.20;;;;;;;21.28;38.53;99939.34;5088947;28;20058;-71
2022/04/24 08:20:44;;;;;;;11.27;6.50;;;;;;;21.01;39.86;99931.63;5074197;28;20064;-71
2022/04/24 08:23:12;;;;;;;9.90;6.78;;;;;;;21.42;37.95;99931.66;5080692;28;20052;-71
2022/04/24 08:25:39;;;;;;;11.15;6.63;;;;;;;21.50;38.98;99935.16;5089304;28;20056;-70
2022/04/24 08:28:07;;;;;;;8.50;5.93;;;;;;;21.40;37.30;99934.47;5097276;28;20039;-71
2022/04/24 08:30:36;;;;;;;9.50;6.63;;;;;;;21.77;36.68;99936.59;5092459;28;20127;-71
2022/04/24 08:33:03;;;;;;;12.43;7.03;;;;;;;21.89;37.09;99940.56;5097239;28;20406;-71
2022/04/24 08:35:29;;;;;;;8.15;6.18;;;;;;;21.98;36.25;99938.75;5106335;27;21180;-71
2022/04/24 08:37:56;;;;;;;12.95;6.55;;;;;;;21.60;37.32;99950.97;5100768;27;20462;-71
2022/04/24 08:40:24;;;;;;;9.02;6.47;;;;;;;21.68;38.24;99942.94;5087696;28;20056;-71
2022/04/24 08:42:51;;;;;;;10.93;6.53;;;;;;;21.80;38.07;99944.28;5108411;27;20047;-71
2022/04/24 08:45:17;;;;;;;9.65;6.13;;;;;;;21.92;38.41;99942.91;5106980;27;20101;-72
2022/04/24 08:47:46;;;;;;;9.73;6.25;;;;;;;22.39;36.06;99942.94;5106455;27;20052;-71
2022/04/24 08:50:13;;;;;;;14.98;6.80;;;;;;;22.69;35.00;99933.25;5084162;28;20055;-71
2022/04/24 08:52:43;;;;;;;9.68;6.68;;;;;;;22.74;35.08;99934.41;5078468;28;20048;-71
2022/04/24 08:55:09;;;;;;;13.38;6.78;;;;;;;22.94;37.20;99936.63;5098613;27;20084;-71
2022/04/24 08:57:36;;;;;;;10.18;6.70;;;;;;;22.35;34.88;99933.59;5106272;28;20043;-72
2022/04/24 09:00:07;;;;;;;17.63;6.78;;;;;;;22.91;35.71;99931.63;5103207;27;20051;-71
2022/04/24 09:02:33;;;;;;;10.80;6.68;;;;;;;22.97;35.65;99930.91;5102792;27;20051;-72
2022/04/24 09:05:03;;;;;;;18.95;7.30;;;;;;;22.97;36.18;99931.75;5090884;28;20052;-71
2022/04/24 09:07:32;;;;;;;12.80;6.40;;;;;;;22.69;36.67;99930.59;5086208;28;20519;-71
2022/04/24 09:09:58;;;;;;;8.73;6.72;;;;;;;23.23;35.36;99939.41;5082575;28;20113;-71
2022/04/24 09:12:28;;;;;;;9.02;6.05;;;;;;;23.42;33.81;99928.25;5080104;28;20040;-71
2022/04/24 09:14:57;;;;;;;9.00;6.10;;;;;;;23.47;35.19;99925.00;5088535;28;20393;-70
2022/04/24 09:17:24;;;;;;;12.02;7.00;;;;;;;23.20;36.36;99932.59;5086624;28;20075;-71
2022/04/24 09:19:52;;;;;;;9.73;6.50;;;;;;;22.90;34.14;99929.97;5086029;28;20048;-71
2022/04/24 09:22:22;;;;;;;8.80;6.80;;;;;;;23.36;36.28;99931.59;5085789;28;20105;-71
2022/04/24 09:24:52;;;;;;;10.85;7.07;;;;;;;23.72;33.14;99931.81;5072607;28;20048;-71
2022/04/24 09:27:24;;;;;;;10.63;7.10;;;;;;;23.43;35.18;99926.41;5077148;28;20517;-71
2022/04/24 09:29:51;;;;;;;;;;;;;;;23.26;32.11;99926.50;5087998;28;20077;-71
2022/04/24 09:32:17;;;;;;;12.07;6.78;;;;;;;23.12;32.84;99929.97;5071351;28;19920;-71
2022/04/24 09:34:44;;;;;;;8.90;6.63;;;;;;;22.26;34.05;99932.78;5081719;28;20124;-66
2022/04/24 09:37:10;;;;;;;9.20;6.88;;;;;;;22.03;40.37;99925.69;5087983;28;20168;-66
2022/04/24 09:39:39;;;;;;;9.30;6.40;;;;;;;22.33;34.88;99927.59;5085136;28;20097;-67
2022/04/24 09:42:07;;;;;;;10.32;6.57;;;;;;;22.71;35.68;99923.25;5087762;28;20156;-66
2022/04/24 09:44:41;;;;;;;9.52;6.93;;;;;;;23.04;36.43;99929.19;5086093;28;20048;-66
2022/04/24 09:47:08;;;;;;;12.85;7.28;;;;;;;23.55;34.40;99931.13;5084592;28;20059;-66
2022/04/24 09:49:37;;;;;;;10.18;7.57;;;;;;;22.92;34.85;99920.75;5081765;28;20075;-67
2022/04/24 09:52:08;;;;;;;10.90;7.35;;;;;;;23.18;33.20;99918.53;5081271;28;20123;-66
2022/04/24 09:54:35;;;;;;;10.48;7.40;;;;;;;23.40;33.34;99916.84;5080930;28;20074;-66
2022/04/24 09:57:04;;;;;;;10.63;7.45;;;;;;;23.69;32.62;99916.09;5081430;28;20129;-66
2022/04/24 09:59:30;;;;;;;10.52;7.43;;;;;;;23.78;31.56;99909.63;5084652;28;20084;-67
2022/04/24 10:01:57;;;;;;;9.15;6.78;;;;;;;23.85;29.50;99909.72;5071306;28;20485;-66
2022/04/24 10:04:25;;;;;;;8.73;6.25;;;;;;;23.79;33.70;99913.16;5071290;28;20048;-67
2022/04/24 10:06:51;;;;;;;10.10;7.13;;;;;;;23.60;31.57;99910.00;5084359;28;20040;-66
2022/04/24 10:09:19;;;;;;;10.00;6.82;;;;;;;22.79;33.25;99912.50;5083575;28;20109;-66
2022/04/24 10:11:46;;;;;;;9.68;7.45;;;;;;;22.08;34.54;99913.50;5087034;28;20044;-66
2022/04/24 10:14:17;;;;;;;8.80;7.07;;;;;;;22.12;32.89;99912.16;5091388;28;20044;-66
2022/04/24 10:17:00;;;;;;;10.18;6.82;;;;;;;21.75;34.61;99925.25;5087051;28;20072;-66
2022/04/24 10:19:37;;;;;;;9.57;6.60;;;;;;;22.40;33.20;99907.19;5085285;28;20090;-66
2022/04/24 10:22:07;;;;;;;9.45;6.75;;;;;;;23.00;33.13;99906.50;5082966;28;20048;-66
2022/04/24 10:24:41;;;;;;;9.38;7.32;;;;;;;22.94;34.78;99908.06;5080706;28;20097;-66
2022/04/24 10:27:09;;;;;;;11.80;6.93;;;;;;;22.77;32.10;99898.47;5090010;28;20051;-66
2022/04/24 10:29:37;;;;;;;12.82;7.50;;;;;;;22.68;32.75;99899.56;5081807;28;20136;-66
2022/04/24 10:32:04;;;;;;;9.98;7.22;;;;;;;22.79;33.67;99901.81;5091164;28;20489;-66
2022/04/24 10:34:39;;;;;;;8.65;6.88;;;;;;;22.74;33.48;99893.47;5091355;28;20051;-66
2022/04/24 10:37:05;;;;;;;9.85;6.57;;;;;;;23.44;33.97;99901.28;5090998;28;20492;-66
2022/04/24 10:39:34;;;;;;;10.38;6.78;;;;;;;23.39;33.66;99882.25;5090652;28;20052;-66
2022/04/24 10:42:06;;;;;;;10.60;6.80;;;;;;;23.66;31.40;99885.16;5090913;28;20040;-66
2022/04/24 10:44:32;;;;;;;8.52;6.00;;;;;;;24.40;35.25;99890.50;5073665;28;20554;-66
2022/04/24 10:47:11;;;;;;;7.22;5.93;;;;;;;24.64;31.54;99882.94;5073387;28;20048;-66
2022/04/24 10:49:37;;;;;;;11.48;6.60;;;;;;;24.51;32.16;99882.78;5085701;28;20101;-67
2022/04/24 10:52:06;;;;;;;10.27;6.05;;;;;;;25.13;31.01;99899.09;5080346;28;20093;-66
2022/04/24 10:54:35;;;;;;;9.45;6.68;;;;;;;24.62;31.54;99881.47;5088821;28;20047;-66
2022/04/24 10:57:03;;;;;;;8.23;6.50;;;;;;;24.04;29.59;99882.41;5090513;28;20130;-66
2022/04/24 10:59:44;;;;;;;7.43;6.15;;;;;;;23.71;30.60;99877.44;5090018;28;20101;-66
2022/04/24 11:02:11;;;;;;;9.57;7.10;;;;;;;23.70;31.04;99882.97;5090497;28;20457;-68
2022/04/24 11:04:40;;;;;;;9.95;6.35;;;;;;;23.42;33.96;99881.94;5089366;28;20487;-66
2022/04/24 11:07:06;;;;;;;9.32;6.32;;;;;;;23.11;33.13;99872.13;5090748;28;20044;-66
2022/04/24 11:09:35;;;;;;;8.00;6.43;;;;;;;22.90;31.87;99873.81;5085099;28;20062;-66
2022/04/24 11:12:05;;;;;;;12.45;6.90;;;;;;;22.75;32.65;99884.47;5089385;28;20048;-66
2022/04/24 11:14:31;;;;;;;9.15;6.03;;;;;;;22.60;32.25;99876.34;5090587;28;20083;-66
2022/04/24 11:16:59;;;;;;;13.70;7.00;;;;;;;22.61;33.90;99874.50;5090623;28;20446;-66
2022/04/24 11:19:29;;;;;;;10.02;6.57;;;;;;;22.66;35.17;99880.97;5089679;28;20089;-66
2022/04/24 11:21:57;;;;;;;11.00;6.88;;;;;;;23.04;32.72;99883.72;5085645;28;20044;-66
2022/04/24 11:24:25;;;;;;;14.98;6.65;;;;;;;23.45;33.36;99873.53;5086018;28;20048;-66
2022/04/24 11:26:51;;;;;;;8.82;6.18;;;;;;;23.47;32.58;99868.81;5090324;28;20070;-66
2022/04/24 11:29:19;;;;;;;11.05;6.95;;;;;;;24.05;32.43;99868.00;5088010;28;20040;-66